Dallas Love Field
KDAL : now visible

Airfield :











YOU CAN JOIN US ON...

 
LOGIN :

Register | Disclaimer

   EN    FR    IT 

 









Legend :    VFR   Marginal VFR   IFR   Intensive IFR   Very Intensive IFR
Visi :
Ceiling :
>= 8 km
>= 3000ft
5 to 8 km
1000 to 3000 ft
1500m to 5 km
500 to 1000 ft
800 to 1500m
200 to 500 ft
< 800m
< 200 ft
Symbols :   Thunderstorms  Fog  Heavy snow  Heavy precipitations  Wind > 20 kt






- Airport Elevation : 487 ft
- IATA code : DAL


KDAL - Dallas Love Field

CURRENT METAR :
  • 201653Z 20011KT 10SM SCT029 28/20 A3000 RMK AO2 SLP154 SCT V BKN T02780200

EXPIRED METARs :
  • 201553Z 18011G18KT 10SM SCT021 27/20 A3002 RMK AO2 SLP159 T02720200
  • 201453Z 17010KT 10SM FEW016 FEW036 FEW048 24/19 A3003 RMK AO2 SLP164 T02440194 53005

TAF KDAL
Valid from the 20 at 15:00 until the 21 at 12:00 UTC


201442Z 2015/2112 10005KT P6SM SCT015 BKN040
TEMPO 2015/2018 14005KT P6SM BKN015 BKN040
FM201900 17008KT P6SM SCT035
FM210900 17007KT P6SM BKN020
KZFW FIR / North America



MET'MAP, your aeronautical weather chart ! - Copyright ORBIFLY December 2007 - Disclaimer

ORBIFLY MET'MAP TEAM :

Programming & Development : Alexandra Zaïnal
Concept & original design : Baudouin d'Aumeries
Assistance for programming : Marc-Olivier Méhu
Technical & hardware support : Manuel Goepfert

Contact : metmap@orbifly.com




SOURCES & CREDITS :

   NOAA       Earth
Advisory